createdAt,value
2023-02-14T00:00:01.460Z,969.09
2023-02-14T00:00:11.451Z,969.09
2023-02-14T00:00:21.456Z,969.08
2023-02-14T00:00:31.454Z,969.08
2023-02-14T00:00:41.475Z,969.08
2023-02-14T00:00:51.458Z,969.07
2023-02-14T00:01:01.455Z,969.07
2023-02-14T00:01:11.458Z,969.07
2023-02-14T00:01:21.457Z,969.06
2023-02-14T00:01:31.465Z,969.06
2023-02-14T00:01:41.458Z,969.06
2023-02-14T00:01:51.457Z,969.06
2023-02-14T00:02:01.462Z,969.05
2023-02-14T00:02:11.458Z,969.05
2023-02-14T00:02:21.494Z,969.04
2023-02-14T00:02:31.488Z,969.04
2023-02-14T00:02:41.482Z,969.04
2023-02-14T00:02:51.492Z,969.04
2023-02-14T00:03:01.523Z,969.03
2023-02-14T00:03:11.550Z,969.03
2023-02-14T00:03:21.470Z,969.03
2023-02-14T00:03:31.463Z,969.03
2023-02-14T00:03:41.466Z,969.03
2023-02-14T00:03:51.468Z,969.02
2023-02-14T00:04:01.484Z,969.02
2023-02-14T00:04:11.491Z,969.03
2023-02-14T00:04:21.479Z,969.03
2023-02-14T00:04:31.482Z,969.03
2023-02-14T00:04:41.609Z,969.03
2023-02-14T00:04:51.543Z,969.03
2023-02-14T00:05:01.477Z,969.03
2023-02-14T00:05:11.472Z,969.03
2023-02-14T00:05:21.488Z,969.03
2023-02-14T00:05:31.473Z,969.04
2023-02-14T00:05:41.488Z,969.04
2023-02-14T00:05:51.473Z,969.04
2023-02-14T00:06:01.477Z,969.05
2023-02-14T00:06:11.481Z,969.05
2023-02-14T00:06:21.477Z,969.05
2023-02-14T00:06:31.478Z,969.05
2023-02-14T00:06:41.484Z,969.05
2023-02-14T00:06:51.479Z,969.06
2023-02-14T00:07:01.513Z,969.07
2023-02-14T00:07:11.480Z,969.07
2023-02-14T00:07:21.487Z,969.07
2023-02-14T00:07:31.484Z,969.07
2023-02-14T00:07:41.481Z,969.08
2023-02-14T00:07:51.484Z,969.08
2023-02-14T00:08:01.488Z,969.08
2023-02-14T00:08:11.482Z,969.09
2023-02-14T00:08:21.485Z,969.09
2023-02-14T00:08:31.487Z,969.09
2023-02-14T00:08:41.489Z,969.09
2023-02-14T00:08:51.495Z,969.09
2023-02-14T00:09:01.508Z,969.09
2023-02-14T00:09:11.493Z,969.09
2023-02-14T00:09:21.490Z,969.09
2023-02-14T00:09:31.494Z,969.10
2023-02-14T00:09:41.494Z,969.10
2023-02-14T00:09:51.496Z,969.10
2023-02-14T00:10:01.501Z,969.10
2023-02-14T00:10:11.481Z,969.10
2023-02-14T00:10:21.505Z,969.10
2023-02-14T00:10:31.501Z,969.10
2023-02-14T00:10:41.501Z,969.10
2023-02-14T00:10:51.499Z,969.10
2023-02-14T00:11:01.500Z,969.10
2023-02-14T00:11:11.500Z,969.09
2023-02-14T00:11:21.509Z,969.10
2023-02-14T00:11:31.499Z,969.09
2023-02-14T00:11:41.523Z,969.09
2023-02-14T00:11:51.505Z,969.09
2023-02-14T00:12:01.501Z,969.09
2023-02-14T00:12:11.501Z,969.09
2023-02-14T00:12:21.514Z,969.08
2023-02-14T00:12:31.502Z,969.08
2023-02-14T00:12:41.506Z,969.08
2023-02-14T00:12:51.506Z,969.08
2023-02-14T00:13:01.513Z,969.08
2023-02-14T00:13:11.509Z,969.08
2023-02-14T00:13:21.513Z,969.07
2023-02-14T00:13:31.510Z,969.07
2023-02-14T00:13:41.512Z,969.07
2023-02-14T00:13:51.515Z,969.07
2023-02-14T00:14:01.529Z,969.06
2023-02-14T00:14:11.517Z,969.06
2023-02-14T00:14:21.517Z,969.06
2023-02-14T00:14:31.515Z,969.06
2023-02-14T00:14:41.518Z,969.06
2023-02-14T00:14:51.518Z,969.05
2023-02-14T00:15:01.519Z,969.05
2023-02-14T00:15:11.573Z,969.05
2023-02-14T00:15:21.560Z,969.04
2023-02-14T00:15:31.526Z,969.04
2023-02-14T00:15:41.604Z,969.04
2023-02-14T00:15:51.544Z,969.03
2023-02-14T00:16:01.542Z,969.03
2023-02-14T00:16:11.591Z,969.03
2023-02-14T00:16:21.600Z,969.03
2023-02-14T00:16:31.595Z,969.03
2023-02-14T00:16:41.562Z,969.03
2023-02-14T00:16:51.528Z,969.03
2023-02-14T00:17:01.527Z,969.02
2023-02-14T00:17:11.534Z,969.02
2023-02-14T00:17:21.537Z,969.02
2023-02-14T00:17:31.529Z,969.02
2023-02-14T00:17:41.531Z,969.01
2023-02-14T00:17:51.531Z,969.01
2023-02-14T00:18:01.534Z,969.01
2023-02-14T00:18:11.534Z,969.01
2023-02-14T00:18:21.532Z,969.01
2023-02-14T00:18:31.535Z,969.01
2023-02-14T00:18:41.534Z,969.00
2023-02-14T00:18:51.537Z,969.00
2023-02-14T00:19:01.536Z,969.00
2023-02-14T00:19:11.535Z,969.00
2023-02-14T00:19:21.546Z,969.00
2023-02-14T00:19:31.523Z,969.00
2023-02-14T00:19:41.538Z,969.00
2023-02-14T00:19:51.539Z,969.00
2023-02-14T00:20:01.550Z,969.00
2023-02-14T00:20:11.541Z,969.00
2023-02-14T00:20:21.547Z,969.00
2023-02-14T00:20:31.553Z,969.00
2023-02-14T00:20:41.544Z,969.00
2023-02-14T00:20:51.543Z,969.00
2023-02-14T00:21:01.548Z,969.00
2023-02-14T00:21:11.545Z,969.00
2023-02-14T00:21:21.546Z,969.00
2023-02-14T00:21:31.543Z,969.00
2023-02-14T00:21:41.547Z,969.00
2023-02-14T00:21:51.548Z,969.01
2023-02-14T00:22:01.553Z,969.01
2023-02-14T00:22:11.566Z,969.01
2023-02-14T00:22:21.554Z,969.01
2023-02-14T00:22:31.552Z,969.01
2023-02-14T00:22:41.558Z,969.01
2023-02-14T00:22:51.554Z,969.02
2023-02-14T00:23:01.553Z,969.02
2023-02-14T00:23:11.555Z,969.02
2023-02-14T00:23:21.555Z,969.02
2023-02-14T00:23:31.556Z,969.02
2023-02-14T00:23:41.558Z,969.02
2023-02-14T00:23:51.556Z,969.03
2023-02-14T00:24:01.556Z,969.03
2023-02-14T00:24:11.559Z,969.03
2023-02-14T00:24:21.560Z,969.04
2023-02-14T00:24:31.559Z,969.04
2023-02-14T00:24:41.558Z,969.03
2023-02-14T00:24:51.561Z,969.04
2023-02-14T00:25:01.594Z,969.04
2023-02-14T00:25:11.562Z,969.05
2023-02-14T00:25:21.583Z,969.05
2023-02-14T00:25:31.566Z,969.05
2023-02-14T00:25:41.578Z,969.05
2023-02-14T00:25:51.561Z,969.05
2023-02-14T00:26:01.566Z,969.05
2023-02-14T00:26:11.563Z,969.05
2023-02-14T00:26:21.567Z,969.05
2023-02-14T00:26:31.565Z,969.05
2023-02-14T00:26:41.565Z,969.05
2023-02-14T00:26:51.574Z,969.05
2023-02-14T00:27:01.571Z,969.05
2023-02-14T00:27:11.568Z,969.05
2023-02-14T00:27:21.574Z,969.05
2023-02-14T00:27:31.559Z,969.05
2023-02-14T00:27:41.559Z,969.05
2023-02-14T00:27:51.573Z,969.05
2023-02-14T00:28:01.577Z,969.05
2023-02-14T00:28:11.588Z,969.05
2023-02-14T00:28:21.575Z,969.04
2023-02-14T00:28:31.576Z,969.04
2023-02-14T00:28:41.583Z,969.04
2023-02-14T00:28:51.577Z,969.04
2023-02-14T00:29:01.591Z,969.04
2023-02-14T00:29:11.581Z,969.03
2023-02-14T00:29:21.578Z,969.03
2023-02-14T00:29:31.582Z,969.03
2023-02-14T00:29:41.583Z,969.02
2023-02-14T00:29:51.610Z,969.02
2023-02-14T00:30:01.644Z,969.02
2023-02-14T00:30:11.616Z,969.02
2023-02-14T00:30:21.612Z,969.01
2023-02-14T00:30:31.729Z,969.01
2023-02-14T00:30:41.616Z,969.00
2023-02-14T00:30:51.687Z,969.00
2023-02-14T00:31:02.057Z,968.99
2023-02-14T00:31:11.688Z,968.99
2023-02-14T00:31:21.843Z,968.99
2023-02-14T00:31:31.714Z,968.98
2023-02-14T00:31:41.623Z,968.98
2023-02-14T00:31:51.665Z,968.97
2023-02-14T00:32:01.675Z,968.97
2023-02-14T00:32:11.733Z,968.96
2023-02-14T00:32:21.598Z,968.96
2023-02-14T00:32:31.606Z,968.95
2023-02-14T00:32:41.599Z,968.95
2023-02-14T00:32:51.601Z,968.95
2023-02-14T00:33:01.599Z,968.95
2023-02-14T00:33:11.599Z,968.94
2023-02-14T00:33:21.603Z,968.94
2023-02-14T00:33:31.601Z,968.94
2023-02-14T00:33:41.601Z,968.93
2023-02-14T00:33:51.603Z,968.93
2023-02-14T00:34:01.603Z,968.93
2023-02-14T00:34:11.598Z,968.93
2023-02-14T00:34:21.605Z,968.92
2023-02-14T00:34:31.624Z,968.92
2023-02-14T00:34:41.601Z,968.91
2023-02-14T00:34:51.600Z,968.91
2023-02-14T00:35:01.621Z,968.91
2023-02-14T00:35:11.619Z,968.90
2023-02-14T00:35:21.605Z,968.90
2023-02-14T00:35:31.612Z,968.90
2023-02-14T00:35:41.606Z,968.90
2023-02-14T00:35:51.610Z,968.89
2023-02-14T00:36:01.607Z,968.89
2023-02-14T00:36:11.609Z,968.89
2023-02-14T00:36:21.609Z,968.89
2023-02-14T00:36:31.615Z,968.88
2023-02-14T00:36:41.614Z,968.88
2023-02-14T00:36:51.614Z,968.88
2023-02-14T00:37:01.613Z,968.88
2023-02-14T00:37:11.610Z,968.88
2023-02-14T00:37:21.614Z,968.88
2023-02-14T00:37:31.603Z,968.88
2023-02-14T00:37:41.618Z,968.88
2023-02-14T00:37:51.625Z,968.88
2023-02-14T00:38:01.619Z,968.88
2023-02-14T00:38:11.619Z,968.88
2023-02-14T00:38:21.619Z,968.88
2023-02-14T00:38:31.622Z,968.88
2023-02-14T00:38:41.620Z,968.88
2023-02-14T00:38:51.636Z,968.88
2023-02-14T00:39:01.623Z,968.88
2023-02-14T00:39:11.626Z,968.88
2023-02-14T00:39:21.624Z,968.88
2023-02-14T00:39:31.623Z,968.88
2023-02-14T00:39:41.628Z,968.89
2023-02-14T00:39:51.625Z,968.89
2023-02-14T00:40:01.626Z,968.89
2023-02-14T00:40:11.629Z,968.89
2023-02-14T00:40:21.625Z,968.89
2023-02-14T00:40:31.630Z,968.89
2023-02-14T00:40:41.631Z,968.89
2023-02-14T00:40:51.633Z,968.90
2023-02-14T00:41:01.638Z,968.90
2023-02-14T00:41:11.629Z,968.90
2023-02-14T00:41:21.631Z,968.90
2023-02-14T00:41:31.648Z,968.90
2023-02-14T00:41:41.633Z,968.90
2023-02-14T00:41:51.632Z,968.90
2023-02-14T00:42:01.637Z,968.90
2023-02-14T00:42:11.635Z,968.90
2023-02-14T00:42:21.640Z,968.90
2023-02-14T00:42:31.643Z,968.90
2023-02-14T00:42:41.636Z,968.89
2023-02-14T00:42:51.639Z,968.90
2023-02-14T00:43:01.639Z,968.90
2023-02-14T00:43:11.643Z,968.90
2023-02-14T00:43:21.639Z,968.89
2023-02-14T00:43:31.639Z,968.89
2023-02-14T00:43:41.644Z,968.89
2023-02-14T00:43:51.642Z,968.89
2023-02-14T00:44:01.643Z,968.89
2023-02-14T00:44:11.647Z,968.89
2023-02-14T00:44:21.634Z,968.89
2023-02-14T00:44:31.644Z,968.89
2023-02-14T00:44:41.647Z,968.89
2023-02-14T00:44:51.647Z,968.89
2023-02-14T00:45:01.658Z,968.89
2023-02-14T00:45:11.655Z,968.89
2023-02-14T00:45:21.655Z,968.88
2023-02-14T00:45:31.677Z,968.88
2023-02-14T00:45:41.752Z,968.88
2023-02-14T00:45:51.678Z,968.88
2023-02-14T00:46:01.717Z,968.88
2023-02-14T00:46:11.711Z,968.88
2023-02-14T00:46:21.658Z,968.88
2023-02-14T00:46:31.674Z,968.88
2023-02-14T00:46:41.660Z,968.88
2023-02-14T00:46:51.658Z,968.88
2023-02-14T00:47:01.665Z,968.88
2023-02-14T00:47:11.658Z,968.88
2023-02-14T00:47:21.657Z,968.89
2023-02-14T00:47:31.664Z,968.88
2023-02-14T00:47:41.659Z,968.88
2023-02-14T00:47:51.665Z,968.88
2023-02-14T00:48:01.666Z,968.88
2023-02-14T00:48:11.668Z,968.89
2023-02-14T00:48:21.687Z,968.89
2023-02-14T00:48:31.666Z,968.89
2023-02-14T00:48:41.663Z,968.88
2023-02-14T00:48:51.675Z,968.88
2023-02-14T00:49:01.670Z,968.88
2023-02-14T00:49:11.665Z,968.88
2023-02-14T00:49:21.667Z,968.88
2023-02-14T00:49:31.668Z,968.88
2023-02-14T00:49:41.679Z,968.88
2023-02-14T00:49:51.672Z,968.88
2023-02-14T00:50:01.680Z,968.87
2023-02-14T00:50:11.670Z,968.87
2023-02-14T00:50:21.673Z,968.87
2023-02-14T00:50:31.673Z,968.87
2023-02-14T00:50:41.675Z,968.87
2023-02-14T00:50:51.676Z,968.87
2023-02-14T00:51:01.725Z,968.87
2023-02-14T00:51:11.675Z,968.87
2023-02-14T00:51:21.680Z,968.87
2023-02-14T00:51:31.666Z,968.87
2023-02-14T00:51:41.684Z,968.87
2023-02-14T00:51:51.681Z,968.86
2023-02-14T00:52:01.686Z,968.86
2023-02-14T00:52:11.678Z,968.86
2023-02-14T00:52:21.679Z,968.86
2023-02-14T00:52:31.682Z,968.87
2023-02-14T00:52:41.691Z,968.87
2023-02-14T00:52:51.684Z,968.87
2023-02-14T00:53:01.685Z,968.87
2023-02-14T00:53:11.682Z,968.87
2023-02-14T00:53:21.684Z,968.87
2023-02-14T00:53:31.686Z,968.88
2023-02-14T00:53:41.688Z,968.87
2023-02-14T00:53:51.699Z,968.88
2023-02-14T00:54:01.690Z,968.88
2023-02-14T00:54:11.699Z,968.88
2023-02-14T00:54:21.691Z,968.88
2023-02-14T00:54:31.689Z,968.88
2023-02-14T00:54:41.678Z,968.88
2023-02-14T00:54:51.693Z,968.88
2023-02-14T00:55:01.693Z,968.88
2023-02-14T00:55:11.702Z,968.88
2023-02-14T00:55:21.694Z,968.88
2023-02-14T00:55:31.697Z,968.88
2023-02-14T00:55:41.694Z,968.89
2023-02-14T00:55:51.696Z,968.89
2023-02-14T00:56:01.728Z,968.89
2023-02-14T00:56:11.703Z,968.89
2023-02-14T00:56:21.700Z,968.89
2023-02-14T00:56:31.698Z,968.90
2023-02-14T00:56:41.698Z,968.90
2023-02-14T00:56:51.700Z,968.90
2023-02-14T00:57:01.703Z,968.90
2023-02-14T00:57:11.715Z,968.90
2023-02-14T00:57:21.702Z,968.91
2023-02-14T00:57:31.706Z,968.91
2023-02-14T00:57:41.705Z,968.91
2023-02-14T00:57:51.705Z,968.91
2023-02-14T00:58:01.704Z,968.91
2023-02-14T00:58:11.706Z,968.91
2023-02-14T00:58:21.719Z,968.92
2023-02-14T00:58:31.711Z,968.92
2023-02-14T00:58:41.720Z,968.92
2023-02-14T00:58:51.716Z,968.92
2023-02-14T00:59:01.712Z,968.93
2023-02-14T00:59:11.714Z,968.93
2023-02-14T00:59:21.709Z,968.93
2023-02-14T00:59:31.710Z,968.94
2023-02-14T00:59:41.712Z,968.94
2023-02-14T00:59:51.716Z,968.94
2023-02-14T01:00:01.716Z,968.94
2023-02-14T01:00:11.722Z,968.94
2023-02-14T01:00:21.713Z,968.94
2023-02-14T01:00:31.743Z,968.94
2023-02-14T01:00:41.770Z,968.95
2023-02-14T01:00:51.745Z,968.95
2023-02-14T01:01:02.163Z,968.95
2023-02-14T01:01:11.752Z,968.95
2023-02-14T01:01:21.812Z,968.95
2023-02-14T01:01:31.720Z,968.95
2023-02-14T01:01:41.746Z,968.95
2023-02-14T01:01:51.728Z,968.95
2023-02-14T01:02:01.727Z,968.95
2023-02-14T01:02:11.766Z,968.95
2023-02-14T01:02:21.803Z,968.96
2023-02-14T01:02:31.794Z,968.95
2023-02-14T01:02:41.752Z,968.95
2023-02-14T01:02:51.763Z,968.95
2023-02-14T01:03:01.726Z,968.95
2023-02-14T01:03:11.730Z,968.96
2023-02-14T01:03:21.729Z,968.95
2023-02-14T01:03:31.730Z,968.95
2023-02-14T01:03:41.714Z,968.95
2023-02-14T01:03:51.719Z,968.95
2023-02-14T01:04:01.734Z,968.95
2023-02-14T01:04:11.731Z,968.95
2023-02-14T01:04:21.731Z,968.94
2023-02-14T01:04:31.737Z,968.94
2023-02-14T01:04:41.731Z,968.94
2023-02-14T01:04:51.734Z,968.93
2023-02-14T01:05:01.734Z,968.93
2023-02-14T01:05:11.744Z,968.92
2023-02-14T01:05:21.734Z,968.92
2023-02-14T01:05:31.755Z,968.92
2023-02-14T01:05:41.738Z,968.92
2023-02-14T01:05:51.742Z,968.91
2023-02-14T01:06:01.746Z,968.91
2023-02-14T01:06:11.750Z,968.91
2023-02-14T01:06:21.741Z,968.91
2023-02-14T01:06:31.761Z,968.90
2023-02-14T01:06:41.744Z,968.90
2023-02-14T01:06:51.742Z,968.90
2023-02-14T01:07:01.746Z,968.90
2023-02-14T01:07:11.742Z,968.90
2023-02-14T01:07:21.743Z,968.90
2023-02-14T01:07:31.745Z,968.90
2023-02-14T01:07:41.752Z,968.90
2023-02-14T01:07:51.747Z,968.89
2023-02-14T01:08:01.749Z,968.90
2023-02-14T01:08:11.749Z,968.89
2023-02-14T01:08:21.750Z,968.90
2023-02-14T01:08:31.745Z,968.89
2023-02-14T01:08:41.750Z,968.90
2023-02-14T01:08:51.753Z,968.89
2023-02-14T01:09:01.752Z,968.89
2023-02-14T01:09:11.753Z,968.89
2023-02-14T01:09:21.766Z,968.89
2023-02-14T01:09:31.757Z,968.89
2023-02-14T01:09:41.755Z,968.89
2023-02-14T01:09:51.755Z,968.89
2023-02-14T01:10:01.760Z,968.89
2023-02-14T01:10:12.755Z,968.89
2023-02-14T01:10:21.743Z,968.89
2023-02-14T01:10:31.790Z,968.89
2023-02-14T01:10:41.747Z,968.89
2023-02-14T01:10:51.760Z,968.89
2023-02-14T01:11:02.074Z,968.89
2023-02-14T01:11:11.772Z,968.89
2023-02-14T01:11:21.762Z,968.89
2023-02-14T01:11:31.774Z,968.89
2023-02-14T01:11:41.764Z,968.89
2023-02-14T01:11:51.752Z,968.89
2023-02-14T01:12:01.764Z,968.90
2023-02-14T01:12:11.776Z,968.90
2023-02-14T01:12:21.785Z,968.90
2023-02-14T01:12:31.768Z,968.90
2023-02-14T01:12:41.757Z,968.90
2023-02-14T01:12:51.778Z,968.90
2023-02-14T01:13:01.777Z,968.91
2023-02-14T01:13:11.770Z,968.91
2023-02-14T01:13:21.779Z,968.91
2023-02-14T01:13:31.761Z,968.91
2023-02-14T01:13:41.776Z,968.91
2023-02-14T01:13:51.778Z,968.91
2023-02-14T01:14:01.782Z,968.91
2023-02-14T01:14:11.777Z,968.92
2023-02-14T01:14:21.791Z,968.92
2023-02-14T01:14:31.784Z,968.92
2023-02-14T01:14:41.779Z,968.92
2023-02-14T01:14:51.779Z,968.92
2023-02-14T01:15:01.781Z,968.92
2023-02-14T01:15:11.802Z,968.92
2023-02-14T01:15:21.779Z,968.92
2023-02-14T01:15:31.783Z,968.93
2023-02-14T01:15:41.783Z,968.93
2023-02-14T01:15:51.785Z,968.93
2023-02-14T01:16:01.788Z,968.93
2023-02-14T01:16:11.825Z,968.93
2023-02-14T01:16:21.845Z,968.93
2023-02-14T01:16:31.832Z,968.93
2023-02-14T01:16:41.851Z,968.93
2023-02-14T01:16:51.944Z,968.93
2023-02-14T01:17:01.787Z,968.93
2023-02-14T01:17:11.787Z,968.93
2023-02-14T01:17:21.799Z,968.92
2023-02-14T01:17:31.792Z,968.92
2023-02-14T01:17:41.792Z,968.92
2023-02-14T01:17:51.793Z,968.92
2023-02-14T01:18:01.792Z,968.93
2023-02-14T01:18:11.793Z,968.92
2023-02-14T01:18:21.794Z,968.92
2023-02-14T01:18:31.792Z,968.92
2023-02-14T01:18:41.796Z,968.92
2023-02-14T01:18:51.795Z,968.92
2023-02-14T01:19:01.807Z,968.92
2023-02-14T01:19:11.799Z,968.92
2023-02-14T01:19:21.788Z,968.93
2023-02-14T01:19:31.810Z,968.92
2023-02-14T01:19:41.800Z,968.93
2023-02-14T01:19:51.798Z,968.92
2023-02-14T01:20:01.826Z,968.92
2023-02-14T01:20:11.796Z,968.92
2023-02-14T01:20:21.825Z,968.92
2023-02-14T01:20:31.812Z,968.92
2023-02-14T01:20:41.805Z,968.93
2023-02-14T01:20:51.804Z,968.92
2023-02-14T01:21:01.803Z,968.92
2023-02-14T01:21:11.811Z,968.92
2023-02-14T01:21:21.824Z,968.93
2023-02-14T01:21:31.815Z,968.92
2023-02-14T01:21:41.806Z,968.93
2023-02-14T01:21:51.808Z,968.93
2023-02-14T01:22:01.806Z,968.93
2023-02-14T01:22:11.810Z,968.93
2023-02-14T01:22:21.795Z,968.93
2023-02-14T01:22:31.809Z,968.93
2023-02-14T01:22:41.810Z,968.93
2023-02-14T01:22:51.808Z,968.93
2023-02-14T01:23:01.807Z,968.93
2023-02-14T01:23:11.809Z,968.93
2023-02-14T01:23:21.813Z,968.94
2023-02-14T01:23:31.812Z,968.94
2023-02-14T01:23:41.813Z,968.94
2023-02-14T01:23:51.815Z,968.94
2023-02-14T01:24:01.807Z,968.94
2023-02-14T01:24:11.835Z,968.94
2023-02-14T01:24:21.822Z,968.94
2023-02-14T01:24:31.828Z,968.94
2023-02-14T01:24:41.818Z,968.94
2023-02-14T01:24:51.819Z,968.94
2023-02-14T01:25:01.832Z,968.94
2023-02-14T01:25:11.824Z,968.95
2023-02-14T01:25:21.822Z,968.95
2023-02-14T01:25:31.850Z,968.95
2023-02-14T01:25:41.822Z,968.95
2023-02-14T01:25:51.846Z,968.95
2023-02-14T01:26:01.838Z,968.96
2023-02-14T01:26:11.828Z,968.96
2023-02-14T01:26:21.842Z,968.97
2023-02-14T01:26:31.838Z,968.96
2023-02-14T01:26:41.831Z,968.97
2023-02-14T01:26:51.832Z,968.97
2023-02-14T01:27:01.845Z,968.97
2023-02-14T01:27:11.834Z,968.97
2023-02-14T01:27:21.841Z,968.97
2023-02-14T01:27:31.832Z,968.98
2023-02-14T01:27:41.836Z,968.98
2023-02-14T01:27:51.834Z,968.98
2023-02-14T01:28:01.838Z,968.99
2023-02-14T01:28:11.836Z,968.99
2023-02-14T01:28:21.837Z,968.99
2023-02-14T01:28:31.839Z,968.99
2023-02-14T01:28:41.841Z,968.99
2023-02-14T01:28:51.842Z,969.00
2023-02-14T01:29:01.851Z,969.00
2023-02-14T01:29:11.844Z,969.00
2023-02-14T01:29:21.844Z,969.00
2023-02-14T01:29:31.843Z,969.01
2023-02-14T01:29:41.852Z,969.01
2023-02-14T01:29:51.893Z,969.01
2023-02-14T01:30:01.901Z,969.01
2023-02-14T01:30:11.887Z,969.01
2023-02-14T01:30:21.904Z,969.01
2023-02-14T01:30:31.865Z,969.00
2023-02-14T01:30:41.854Z,969.01
2023-02-14T01:30:51.934Z,969.00
2023-02-14T01:31:02.299Z,969.00
2023-02-14T01:31:11.980Z,969.00
2023-02-14T01:31:21.982Z,969.00
2023-02-14T01:31:32.010Z,969.00
2023-02-14T01:31:41.923Z,969.00
2023-02-14T01:31:51.886Z,969.00
2023-02-14T01:32:01.918Z,969.01
2023-02-14T01:32:11.905Z,969.00
2023-02-14T01:32:21.889Z,969.00
2023-02-14T01:32:31.895Z,969.01
2023-02-14T01:32:41.853Z,969.01
2023-02-14T01:32:51.857Z,969.00
2023-02-14T01:33:01.854Z,969.00
2023-02-14T01:33:11.860Z,969.01
2023-02-14T01:33:21.857Z,969.00
2023-02-14T01:33:31.866Z,969.00
2023-02-14T01:33:41.860Z,969.00
2023-02-14T01:33:51.860Z,969.00
2023-02-14T01:34:01.890Z,969.00
2023-02-14T01:34:11.870Z,969.00
2023-02-14T01:34:21.861Z,969.00
2023-02-14T01:34:31.867Z,969.01
2023-02-14T01:34:41.868Z,969.01
2023-02-14T01:34:51.866Z,969.00
2023-02-14T01:35:01.882Z,969.01
2023-02-14T01:35:11.865Z,969.01
2023-02-14T01:35:21.891Z,969.01
2023-02-14T01:35:31.882Z,969.01
2023-02-14T01:35:41.868Z,969.01
2023-02-14T01:35:51.858Z,969.01
2023-02-14T01:36:01.869Z,969.01
2023-02-14T01:36:11.872Z,969.01
2023-02-14T01:36:21.888Z,969.01
2023-02-14T01:36:31.880Z,969.01
2023-02-14T01:36:41.858Z,969.01
2023-02-14T01:36:51.875Z,969.01
2023-02-14T01:37:01.882Z,969.01
2023-02-14T01:37:11.875Z,969.01
2023-02-14T01:37:21.877Z,969.01
2023-02-14T01:37:31.876Z,969.01
2023-02-14T01:37:41.877Z,969.01
2023-02-14T01:37:51.864Z,969.01
2023-02-14T01:38:01.881Z,969.01
2023-02-14T01:38:11.880Z,969.01
2023-02-14T01:38:21.881Z,969.02
2023-02-14T01:38:31.887Z,969.01
2023-02-14T01:38:41.884Z,969.02
2023-02-14T01:38:51.888Z,969.01
2023-02-14T01:39:01.889Z,969.02
2023-02-14T01:39:11.887Z,969.02
2023-02-14T01:39:21.887Z,969.01
2023-02-14T01:39:31.890Z,969.02
2023-02-14T01:39:41.889Z,969.01
2023-02-14T01:39:51.893Z,969.01
2023-02-14T01:40:01.895Z,969.01
2023-02-14T01:40:11.876Z,969.01
2023-02-14T01:40:21.892Z,969.01
2023-02-14T01:40:31.905Z,969.01
2023-02-14T01:40:41.877Z,969.01
2023-02-14T01:40:51.893Z,969.01
2023-02-14T01:41:02.099Z,969.01
2023-02-14T01:41:11.893Z,969.01
2023-02-14T01:41:21.902Z,969.01
2023-02-14T01:41:31.900Z,969.01
2023-02-14T01:41:41.898Z,969.01
2023-02-14T01:41:51.900Z,969.01
2023-02-14T01:42:01.902Z,969.01
2023-02-14T01:42:11.896Z,969.01
2023-02-14T01:42:21.898Z,969.01
2023-02-14T01:42:31.898Z,969.01
2023-02-14T01:42:41.883Z,969.01
2023-02-14T01:42:51.894Z,969.01
2023-02-14T01:43:01.890Z,969.01
2023-02-14T01:43:11.889Z,969.00
2023-02-14T01:43:21.919Z,969.01
2023-02-14T01:43:31.906Z,969.00
2023-02-14T01:43:41.907Z,969.01
2023-02-14T01:43:51.908Z,969.00
2023-02-14T01:44:01.912Z,969.00
2023-02-14T01:44:11.916Z,969.00
2023-02-14T01:44:21.895Z,969.00
2023-02-14T01:44:31.912Z,969.00
2023-02-14T01:44:41.909Z,969.00
2023-02-14T01:44:51.911Z,969.00
2023-02-14T01:45:01.912Z,969.00
2023-02-14T01:45:11.912Z,969.00
2023-02-14T01:45:21.915Z,968.99
2023-02-14T01:45:31.959Z,968.99
2023-02-14T01:45:41.967Z,968.99
2023-02-14T01:45:51.929Z,968.99
2023-02-14T01:46:01.971Z,968.99
2023-02-14T01:46:11.955Z,968.99
2023-02-14T01:46:21.918Z,968.99
2023-02-14T01:46:31.913Z,968.99
2023-02-14T01:46:41.915Z,968.98
2023-02-14T01:46:51.917Z,968.98
2023-02-14T01:47:01.922Z,968.99
2023-02-14T01:47:11.918Z,968.98
2023-02-14T01:47:21.919Z,968.98
2023-02-14T01:47:31.929Z,968.98
2023-02-14T01:47:41.930Z,968.98
2023-02-14T01:47:51.926Z,968.98
2023-02-14T01:48:01.925Z,968.97
2023-02-14T01:48:11.924Z,968.97
2023-02-14T01:48:21.925Z,968.97
2023-02-14T01:48:31.925Z,968.97
2023-02-14T01:48:41.927Z,968.96
2023-02-14T01:48:51.925Z,968.96
2023-02-14T01:49:01.928Z,968.96
2023-02-14T01:49:11.935Z,968.95
2023-02-14T01:49:21.932Z,968.95
2023-02-14T01:49:31.928Z,968.95
2023-02-14T01:49:41.933Z,968.94
2023-02-14T01:49:51.932Z,968.94
2023-02-14T01:50:01.938Z,968.94
2023-02-14T01:50:11.936Z,968.94
2023-02-14T01:50:21.936Z,968.93
2023-02-14T01:50:31.950Z,968.93
2023-02-14T01:50:41.937Z,968.93
2023-02-14T01:50:51.950Z,968.92
2023-02-14T01:51:02.208Z,968.92
2023-02-14T01:51:11.943Z,968.92
2023-02-14T01:51:21.948Z,968.92
2023-02-14T01:51:31.941Z,968.91
2023-02-14T01:51:41.940Z,968.91
2023-02-14T01:51:51.941Z,968.91
2023-02-14T01:52:04.007Z,968.91
2023-02-14T01:52:11.939Z,968.90
2023-02-14T01:52:21.944Z,968.90
2023-02-14T01:52:31.942Z,968.90
2023-02-14T01:52:41.943Z,968.90
2023-02-14T01:52:51.946Z,968.90
2023-02-14T01:53:01.943Z,968.90
2023-02-14T01:53:11.946Z,968.90
2023-02-14T01:53:21.943Z,968.90
2023-02-14T01:53:31.947Z,968.89
2023-02-14T01:53:41.947Z,968.89
2023-02-14T01:53:51.940Z,968.90
2023-02-14T01:54:01.955Z,968.90
2023-02-14T01:54:11.941Z,968.90
2023-02-14T01:54:21.950Z,968.90
2023-02-14T01:54:31.951Z,968.90
2023-02-14T01:54:41.954Z,968.90
2023-02-14T01:54:51.953Z,968.90
2023-02-14T01:55:01.975Z,968.91
2023-02-14T01:55:11.955Z,968.91
2023-02-14T01:55:21.964Z,968.91
2023-02-14T01:55:31.987Z,968.90
2023-02-14T01:55:41.982Z,968.91
2023-02-14T01:55:51.959Z,968.91
2023-02-14T01:56:01.964Z,968.91
2023-02-14T01:56:11.961Z,968.91
2023-02-14T01:56:21.961Z,968.91
2023-02-14T01:56:31.963Z,968.91
2023-02-14T01:56:41.961Z,968.91
2023-02-14T01:56:51.963Z,968.91
2023-02-14T01:57:01.965Z,968.91
2023-02-14T01:57:11.965Z,968.91
2023-02-14T01:57:21.953Z,968.91
2023-02-14T01:57:31.969Z,968.91
2023-02-14T01:57:41.966Z,968.92
2023-02-14T01:57:51.973Z,968.92
2023-02-14T01:58:01.973Z,968.92
2023-02-14T01:58:11.969Z,968.93
2023-02-14T01:58:21.970Z,968.93
2023-02-14T01:58:31.960Z,968.93
2023-02-14T01:58:41.959Z,968.92
2023-02-14T01:58:51.971Z,968.93
2023-02-14T01:59:01.973Z,968.92
2023-02-14T01:59:11.980Z,968.92
2023-02-14T01:59:21.975Z,968.92
2023-02-14T01:59:31.976Z,968.92
2023-02-14T01:59:41.973Z,968.92
2023-02-14T01:59:51.978Z,968.91
2023-02-14T02:00:01.976Z,968.92
2023-02-14T02:00:11.977Z,968.91
2023-02-14T02:00:21.979Z,968.91
2023-02-14T02:00:31.979Z,968.91
2023-02-14T02:00:42.000Z,968.91
2023-02-14T02:00:52.011Z,968.91
2023-02-14T02:01:02.435Z,968.91
2023-02-14T02:01:12.024Z,968.91
2023-02-14T02:01:22.036Z,968.91
2023-02-14T02:01:32.021Z,968.91
2023-02-14T02:01:42.000Z,968.91
2023-02-14T02:01:52.017Z,968.91
2023-02-14T02:02:02.037Z,968.91
2023-02-14T02:02:12.004Z,968.91
2023-02-14T02:02:22.104Z,968.90
2023-02-14T02:02:32.035Z,968.90
2023-02-14T02:02:42.015Z,968.90
2023-02-14T02:02:51.998Z,968.90
2023-02-14T02:03:01.988Z,968.90
2023-02-14T02:03:11.998Z,968.89
2023-02-14T02:03:21.990Z,968.89
2023-02-14T02:03:31.991Z,968.89
2023-02-14T02:03:41.997Z,968.89
2023-02-14T02:03:51.996Z,968.89
2023-02-14T02:04:01.997Z,968.88
2023-02-14T02:04:11.995Z,968.88
2023-02-14T02:04:21.996Z,968.88
2023-02-14T02:04:31.998Z,968.88
2023-02-14T02:04:41.997Z,968.88